Time;durP1;ratioP1;P1;durP2;ratioP2;P2;SDS_P1;SDS_P2;PMS_P1;PMS_P2;Temp;Humidity;BMP_temperature;BMP_pressure;BME280_temperature;BME280_humidity;BME280_pressure;Samples;Min_cycle;Max_cycle;Signal;HPM_P1;HPM_P2
2023/05/20 00:01:22;;;;;;;2.90;1.60;;;;;;;15.62;28.36;101815.88;5025688;28;20163;-68
2023/05/20 00:03:50;;;;;;;3.25;1.55;;;;;;;15.59;28.29;101815.31;5031245;28;20452;-68
2023/05/20 00:06:20;;;;;;;2.97;1.77;;;;;;;15.56;28.89;101824.75;5025030;28;20072;-68
2023/05/20 00:11:36;;;;;;;3.10;1.40;;;;;;;15.46;28.54;101821.97;5026174;28;20060;-70
2023/05/20 00:14:05;;;;;;;2.88;1.70;;;;;;;15.46;28.99;101824.72;5040198;28;20094;-69
2023/05/20 00:16:33;;;;;;;4.78;1.65;;;;;;;15.43;29.01;101821.38;5048442;28;20044;-70
2023/05/20 00:19:00;;;;;;;3.33;1.63;;;;;;;15.41;29.08;101820.66;5062297;28;20424;-71
2023/05/20 00:21:30;;;;;;;4.47;1.73;;;;;;;15.40;29.14;101824.44;5047605;28;20148;-70
2023/05/20 00:23:58;;;;;;;2.72;1.70;;;;;;;15.36;29.13;101828.47;5048089;28;20102;-71
2023/05/20 00:26:26;;;;;;;3.38;1.48;;;;;;;15.33;29.22;101823.25;5047251;28;20554;-70
2023/05/20 00:28:55;;;;;;;2.85;1.52;;;;;;;15.32;29.31;101833.41;5031263;28;20049;-70
2023/05/20 00:31:23;;;;;;;2.78;1.70;;;;;;;15.30;28.86;101829.91;5047230;28;20049;-71
2023/05/20 00:33:52;;;;;;;2.88;1.70;;;;;;;15.30;29.18;101831.78;5030555;28;20045;-72
2023/05/20 00:36:20;;;;;;;3.03;1.83;;;;;;;15.29;29.25;101830.03;5030130;28;20049;-72
2023/05/20 00:38:49;;;;;;;3.40;1.40;;;;;;;15.30;28.87;101835.41;5030098;28;20159;-71
2023/05/20 00:41:17;;;;;;;3.60;1.75;;;;;;;15.27;29.01;101835.69;5030051;28;20055;-72
2023/05/20 00:43:45;;;;;;;3.53;1.55;;;;;;;15.26;29.11;101833.94;5030417;28;20061;-71
2023/05/20 00:46:14;;;;;;;3.00;1.60;;;;;;;15.26;29.20;101831.19;5030075;28;20748;-71
2023/05/20 00:48:43;;;;;;;2.92;1.50;;;;;;;15.26;28.95;101831.19;5048321;28;20059;-71
2023/05/20 00:51:12;;;;;;;2.90;1.60;;;;;;;15.25;29.57;101834.97;5029043;28;20314;-71
2023/05/20 00:53:41;;;;;;;2.58;1.48;;;;;;;15.26;29.51;101822.06;5030354;28;20538;-71
2023/05/20 00:56:11;;;;;;;3.40;1.65;;;;;;;15.26;29.64;101827.59;5046768;28;20478;-71
2023/05/20 00:58:40;;;;;;;3.97;1.70;;;;;;;15.23;29.19;101827.84;5048694;28;20084;-72
2023/05/20 01:01:08;;;;;;;2.80;1.60;;;;;;;15.22;29.57;101831.63;5029515;28;20053;-71
2023/05/20 01:03:36;;;;;;;4.60;1.73;;;;;;;15.21;29.14;101830.75;5048323;28;20645;-72
2023/05/20 01:06:04;;;;;;;2.92;1.70;;;;;;;15.20;29.21;101820.72;5021058;28;20128;-72
2023/05/20 01:08:33;;;;;;;2.75;1.63;;;;;;;15.19;29.29;101816.22;5029995;28;20045;-71
2023/05/20 01:11:06;;;;;;;2.50;1.60;;;;;;;15.20;29.82;101823.47;5046706;28;20084;-72
2023/05/20 01:13:43;;;;;;;2.80;1.50;;;;;;;15.20;29.84;101826.25;5029581;28;20048;-71
2023/05/20 01:16:11;;;;;;;3.38;1.70;;;;;;;15.16;29.34;101818.41;5029427;28;20056;-71
2023/05/20 01:18:42;;;;;;;3.80;1.92;;;;;;;15.14;29.39;101824.94;5030291;28;20044;-72
2023/05/20 01:21:13;;;;;;;3.13;1.67;;;;;;;15.14;29.87;101822.16;5046320;28;20071;-70
2023/05/20 01:23:43;;;;;;;3.83;2.00;;;;;;;15.15;29.93;101817.53;5030344;28;20045;-71
2023/05/20 01:26:12;;;;;;;3.47;1.92;;;;;;;15.12;29.90;101820.56;5027327;28;20338;-70
2023/05/20 01:28:43;;;;;;;3.25;1.75;;;;;;;15.12;29.68;101832.47;5047925;28;20217;-71
2023/05/20 01:31:18;;;;;;;3.90;1.85;;;;;;;15.10;29.80;101812.41;5047708;28;20547;-71
2023/05/20 01:33:55;;;;;;;3.35;2.00;;;;;;;15.09;29.86;101816.19;5047983;28;20048;-72
2023/05/20 01:36:23;;;;;;;4.57;1.90;;;;;;;15.07;29.63;101817.38;5036580;28;20056;-72
2023/05/20 01:38:54;;;;;;;3.55;1.90;;;;;;;15.06;30.06;101812.84;5034079;28;20041;-72
2023/05/20 01:41:25;;;;;;;4.13;2.38;;;;;;;15.05;29.89;101808.34;5050768;28;20420;-71
2023/05/20 01:43:55;;;;;;;3.53;1.98;;;;;;;15.01;29.85;101801.41;5032605;28;20329;-71
2023/05/20 01:46:23;;;;;;;3.47;2.00;;;;;;;14.99;30.27;101803.41;5032670;28;20060;-71
2023/05/20 01:48:51;;;;;;;3.38;2.25;;;;;;;14.98;30.07;101805.28;5032196;28;20148;-71
2023/05/20 01:51:19;;;;;;;4.18;1.90;;;;;;;14.97;29.79;101808.19;5033172;28;20048;-71
2023/05/20 01:53:47;;;;;;;4.70;2.40;;;;;;;14.96;29.84;101806.44;5050910;28;20041;-71
2023/05/20 01:56:16;;;;;;;3.83;2.10;;;;;;;14.96;30.37;101800.91;5045197;28;20492;-71
2023/05/20 01:58:44;;;;;;;4.70;2.30;;;;;;;14.93;30.03;101802.06;5035507;28;20077;-71
2023/05/20 02:01:13;;;;;;;4.35;2.28;;;;;;;14.91;30.48;101795.84;5032352;28;20107;-72
2023/05/20 02:03:43;;;;;;;3.58;2.00;;;;;;;14.90;30.21;101796.84;5033083;28;20044;-71
2023/05/20 02:06:11;;;;;;;3.67;2.00;;;;;;;14.89;30.11;101795.09;5032409;28;20099;-71
2023/05/20 02:08:39;;;;;;;4.40;2.35;;;;;;;14.88;30.13;101800.75;5033204;28;20049;-71
2023/05/20 02:11:07;;;;;;;3.97;2.38;;;;;;;14.87;30.62;101799.00;5049565;28;20515;-71
2023/05/20 02:13:38;;;;;;;3.97;2.30;;;;;;;14.87;30.22;101799.88;5033755;28;20049;-71
2023/05/20 02:16:06;;;;;;;3.42;2.05;;;;;;;14.85;30.58;101803.81;5031700;28;20055;-71
2023/05/20 02:18:35;;;;;;;4.32;2.38;;;;;;;14.83;30.53;101794.78;5032688;28;20043;-70
2023/05/20 02:21:03;;;;;;;4.45;2.40;;;;;;;14.80;30.30;101793.19;5018925;28;20045;-70
2023/05/20 02:23:31;;;;;;;4.82;2.30;;;;;;;14.76;30.21;101794.50;5033184;28;20045;-70
2023/05/20 02:25:59;;;;;;;4.03;2.28;;;;;;;14.75;30.55;101801.88;5050315;28;20056;-70
2023/05/20 02:28:28;;;;;;;4.22;2.40;;;;;;;14.73;30.33;101800.25;5050589;28;20052;-70
2023/05/20 02:30:57;;;;;;;3.95;2.17;;;;;;;14.72;30.70;101804.91;5050152;28;20057;-71
2023/05/20 02:33:27;;;;;;;4.05;2.20;;;;;;;14.68;30.70;101799.81;5052916;28;20080;-71
2023/05/20 02:35:56;;;;;;;4.00;2.40;;;;;;;14.66;30.28;101796.31;5033314;28;20053;-70
2023/05/20 02:38:24;;;;;;;4.10;2.25;;;;;;;14.61;30.39;101793.97;5032103;28;20041;-70
2023/05/20 02:40:52;;;;;;;3.80;2.17;;;;;;;14.59;30.76;101793.25;5031166;28;20075;-70
2023/05/20 02:43:20;;;;;;;4.60;2.22;;;;;;;14.55;30.58;101785.38;5032916;28;20579;-71
2023/05/20 02:45:48;;;;;;;4.25;2.40;;;;;;;14.53;30.63;101791.03;5031117;28;20095;-69
2023/05/20 02:48:17;;;;;;;4.50;2.53;;;;;;;14.51;31.03;101790.31;5032132;28;20462;-70
2023/05/20 02:50:46;;;;;;;4.57;2.50;;;;;;;14.48;31.17;101785.06;5036238;28;20064;-71
2023/05/20 02:53:14;;;;;;;4.30;2.28;;;;;;;14.44;31.16;101780.78;5050318;28;20175;-72
2023/05/20 02:55:43;;;;;;;4.28;2.42;;;;;;;14.41;30.69;101777.47;5030585;28;20118;-72
2023/05/20 02:58:12;;;;;;;4.68;2.60;;;;;;;14.38;30.75;101771.22;5035518;28;20565;-71
2023/05/20 03:00:40;;;;;;;4.88;2.65;;;;;;;14.36;30.83;101773.22;5031266;28;20424;-71
2023/05/20 03:03:08;;;;;;;3.97;2.42;;;;;;;14.33;30.91;101770.75;5031887;28;20033;-70
2023/05/20 03:05:41;;;;;;;3.50;2.10;;;;;;;14.32;31.10;101768.13;5031631;28;20049;-72
2023/05/20 03:08:10;;;;;;;4.70;2.33;;;;;;;14.27;31.04;101771.28;5024946;28;20067;-71
2023/05/20 03:10:39;;;;;;;3.95;2.50;;;;;;;14.24;30.94;101763.31;5048862;28;20288;-71
2023/05/20 03:13:10;;;;;;;4.03;2.40;;;;;;;14.21;31.13;101765.47;5038377;28;20052;-70
2023/05/20 03:15:38;;;;;;;4.07;2.50;;;;;;;14.19;31.58;101773.84;5030396;28;20116;-71
2023/05/20 03:18:07;;;;;;;3.78;2.53;;;;;;;14.16;31.55;101771.38;5055345;28;20496;-71
2023/05/20 03:20:38;;;;;;;5.20;2.63;;;;;;;14.14;31.23;101761.50;5031044;28;20045;-71
2023/05/20 03:23:07;;;;;;;3.83;2.47;;;;;;;14.12;31.35;101767.16;5032454;28;20140;-71
2023/05/20 03:25:37;;;;;;;5.72;2.40;;;;;;;14.09;31.64;101767.44;5030626;28;20419;-72
2023/05/20 03:28:06;;;;;;;3.72;2.38;;;;;;;14.04;31.36;101769.69;5031887;28;20135;-71
2023/05/20 03:30:37;;;;;;;3.88;2.40;;;;;;;14.03;31.40;101773.47;5031087;28;20045;-70
2023/05/20 03:33:06;;;;;;;3.65;2.38;;;;;;;13.99;31.52;101772.88;5031213;28;20045;-70
2023/05/20 03:35:34;;;;;;;5.10;2.58;;;;;;;13.98;31.72;101773.00;5035540;28;20098;-70
2023/05/20 03:38:04;;;;;;;3.35;2.20;;;;;;;13.96;31.93;101770.38;5049991;28;20124;-71
2023/05/20 03:40:34;;;;;;;3.75;2.17;;;;;;;13.92;31.60;101768.03;5031010;28;20538;-70
2023/05/20 03:43:03;;;;;;;3.92;2.20;;;;;;;13.89;32.21;101766.41;5031256;28;20045;-70
2023/05/20 03:45:33;;;;;;;3.72;2.30;;;;;;;13.87;31.79;101762.91;5029370;28;20106;-69
2023/05/20 03:48:06;;;;;;;4.40;2.35;;;;;;;13.84;31.82;101754.97;5050241;28;20036;-69
2023/05/20 03:50:35;;;;;;;3.67;2.30;;;;;;;13.82;32.11;101745.09;5029654;28;20045;-70
2023/05/20 03:53:05;;;;;;;4.90;2.45;;;;;;;13.82;32.44;101745.09;5031325;28;20041;-70
2023/05/20 03:55:40;;;;;;;5.35;2.70;;;;;;;13.78;31.84;101744.47;5030986;28;20049;-70
2023/05/20 03:58:09;;;;;;;4.05;2.38;;;;;;;13.78;32.30;101749.09;5031534;28;20036;-70
2023/05/20 04:00:37;;;;;;;4.60;2.30;;;;;;;13.77;32.20;101750.13;5041530;28;20056;-70
2023/05/20 04:03:05;;;;;;;4.60;2.63;;;;;;;13.75;32.13;101753.00;5051165;28;20167;-70
2023/05/20 04:05:36;;;;;;;4.10;2.50;;;;;;;13.77;32.20;101748.25;5034667;28;20248;-70
2023/05/20 04:08:12;;;;;;;4.03;2.40;;;;;;;13.78;32.17;101751.84;5031228;28;20396;-70
2023/05/20 04:10:41;;;;;;;3.72;2.20;;;;;;;13.77;32.59;101748.25;5048333;28;20362;-70
2023/05/20 04:13:11;;;;;;;3.95;2.25;;;;;;;13.78;32.57;101749.97;5011994;28;20041;-69
2023/05/20 04:15:40;;;;;;;4.05;2.50;;;;;;;13.78;32.60;101749.97;5026983;28;20774;-70
2023/05/20 04:18:09;;;;;;;3.38;2.17;;;;;;;13.80;32.36;101749.84;5030934;28;20087;-70
2023/05/20 04:20:40;;;;;;;4.15;2.47;;;;;;;13.82;32.66;101754.22;5040928;28;20040;-70
2023/05/20 04:23:09;;;;;;;3.13;1.83;;;;;;;13.84;32.28;101751.34;5035835;28;20086;-71
2023/05/20 04:25:40;;;;;;;4.18;2.45;;;;;;;13.88;32.82;101750.03;5032212;28;20052;-70
2023/05/20 04:28:09;;;;;;;2.97;2.00;;;;;;;13.89;32.29;101751.78;5023516;28;20523;-70
2023/05/20 04:30:37;;;;;;;3.70;2.28;;;;;;;13.91;32.95;101753.41;5030121;28;20072;-70
2023/05/20 04:33:05;;;;;;;3.85;2.25;;;;;;;13.93;32.59;101748.66;5031108;28;20075;-70
2023/05/20 04:35:33;;;;;;;3.95;2.30;;;;;;;13.97;32.48;101746.47;5029550;28;20393;-71
2023/05/20 04:38:04;;;;;;;3.20;2.00;;;;;;;13.99;32.65;101748.09;5030775;28;20183;-70
2023/05/20 04:40:32;;;;;;;5.32;2.40;;;;;;;14.02;32.28;101750.56;5029896;28;20053;-70
2023/05/20 04:43:02;;;;;;;3.88;2.35;;;;;;;14.07;32.92;101741.03;5049389;28;20110;-69
2023/05/20 04:45:32;;;;;;;4.30;2.22;;;;;;;14.09;33.04;101741.78;5034547;28;20045;-70
2023/05/20 04:48:00;;;;;;;3.53;1.90;;;;;;;14.12;32.94;101747.88;5048985;28;20520;-71
2023/05/20 04:50:28;;;;;;;3.55;1.90;;;;;;;14.16;32.50;101740.22;5029800;28;20431;-71
2023/05/20 04:52:56;;;;;;;3.80;2.22;;;;;;;14.19;33.04;101742.72;5030729;28;20056;-71
2023/05/20 04:55:26;;;;;;;3.05;1.90;;;;;;;14.21;32.53;101735.16;5047883;28;20508;-70
2023/05/20 04:57:54;;;;;;;3.55;1.73;;;;;;;14.22;33.01;101735.03;5030518;28;20057;-70
2023/05/20 05:00:23;;;;;;;2.90;1.85;;;;;;;14.29;32.72;101740.88;5045671;28;20057;-70
2023/05/20 05:02:53;;;;;;;3.63;2.20;;;;;;;14.31;33.36;101744.38;5031121;28;20132;-70
2023/05/20 05:05:21;;;;;;;3.60;2.25;;;;;;;14.39;33.19;101741.78;5028702;28;20049;-71
2023/05/20 05:07:49;;;;;;;3.42;2.03;;;;;;;14.49;32.84;101740.00;5030077;28;20072;-69
2023/05/20 05:10:18;;;;;;;3.95;2.10;;;;;;;14.61;33.50;101744.38;5029700;28;20049;-71
2023/05/20 05:12:47;;;;;;;4.80;2.00;;;;;;;14.75;33.05;101746.78;5035245;28;20462;-71
2023/05/20 05:15:16;;;;;;;3.70;2.30;;;;;;;14.92;33.12;101736.06;5033095;28;20053;-72
2023/05/20 05:17:45;;;;;;;4.45;2.20;;;;;;;15.10;33.13;101745.38;5033731;28;20052;-71
2023/05/20 05:20:15;;;;;;;4.70;2.25;;;;;;;15.26;33.18;101742.09;5033663;28;20443;-71
2023/05/20 05:22:43;;;;;;;3.75;2.30;;;;;;;15.43;32.64;101735.88;5034068;28;20045;-71
2023/05/20 05:25:12;;;;;;;4.40;2.45;;;;;;;15.61;32.37;101739.66;5050022;28;20124;-71
2023/05/20 05:27:40;;;;;;;4.57;2.30;;;;;;;15.80;32.57;101734.13;5035656;28;20107;-71
2023/05/20 05:30:09;;;;;;;3.70;2.10;;;;;;;15.97;32.23;101731.63;5033196;28;20475;-71
2023/05/20 05:32:37;;;;;;;4.22;2.03;;;;;;;16.13;31.97;101731.88;5047235;28;20049;-71
2023/05/20 05:35:07;;;;;;;3.10;1.98;;;;;;;16.30;31.62;101728.34;5031587;28;20045;-71
2023/05/20 05:37:35;;;;;;;3.40;1.83;;;;;;;16.43;31.91;101725.25;5050717;28;20099;-71
2023/05/20 05:40:06;;;;;;;3.90;2.13;;;;;;;16.57;31.30;101720.13;5032224;28;20056;-71
2023/05/20 05:42:34;;;;;;;3.28;2.03;;;;;;;16.68;31.33;101716.25;5033879;28;20055;-70
2023/05/20 05:45:07;;;;;;;3.38;2.20;;;;;;;16.80;31.00;101714.16;5032873;28;20589;-72
2023/05/20 05:47:36;;;;;;;3.28;1.90;;;;;;;16.84;31.14;101710.91;5033951;28;20041;-71
2023/05/20 05:50:04;;;;;;;5.50;2.42;;;;;;;16.94;30.61;101708.97;5040056;28;20041;-71
2023/05/20 05:52:35;;;;;;;3.55;2.08;;;;;;;17.02;30.37;101714.63;5033973;28;20048;-72
2023/05/20 05:55:06;;;;;;;3.40;2.15;;;;;;;17.09;30.91;101716.75;5033045;28;20389;-71
2023/05/20 05:57:34;;;;;;;3.33;2.10;;;;;;;17.14;30.54;101709.75;5033454;28;20047;-71
2023/05/20 06:00:03;;;;;;;3.63;2.20;;;;;;;17.16;30.54;101709.56;5031842;28;20044;-71
2023/05/20 06:02:44;;;;;;;4.10;2.20;;;;;;;17.22;30.46;101707.06;5038335;28;20053;-72
2023/05/20 06:05:17;;;;;;;3.20;1.80;;;;;;;17.29;30.32;101712.84;5031449;28;20068;-71
2023/05/20 06:07:47;;;;;;;4.75;2.30;;;;;;;17.34;30.49;101716.84;5032303;28;20079;-71
2023/05/20 06:10:15;;;;;;;3.30;1.92;;;;;;;17.38;30.59;101711.91;5020908;28;20463;-73
2023/05/20 06:12:43;;;;;;;3.20;2.03;;;;;;;17.44;30.08;101713.16;5028815;28;20049;-73
2023/05/20 06:15:12;;;;;;;3.13;2.05;;;;;;;17.52;30.73;101707.69;5024759;28;20052;-73
2023/05/20 06:17:41;;;;;;;3.97;1.92;;;;;;;17.59;30.61;101703.25;5044276;28;20411;-74
2023/05/20 06:20:10;;;;;;;3.35;1.80;;;;;;;17.67;30.30;101706.97;5026298;28;20064;-73
2023/05/20 06:22:38;;;;;;;3.67;2.13;;;;;;;17.73;30.18;101705.47;5019096;28;20065;-73
2023/05/20 06:25:09;;;;;;;3.80;2.10;;;;;;;17.86;29.79;101705.06;5044777;28;20048;-73
2023/05/20 06:27:37;;;;;;;4.68;2.45;;;;;;;17.88;29.72;101695.56;5030205;28;20041;-73
2023/05/20 06:30:08;;;;;;;4.07;2.00;;;;;;;17.95;29.76;101704.09;5024593;28;20048;-73
2023/05/20 06:32:36;;;;;;;3.28;1.98;;;;;;;17.96;29.85;101700.31;5025959;28;20040;-73
2023/05/20 06:35:04;;;;;;;3.50;2.13;;;;;;;17.93;29.56;101704.25;5024611;28;20073;-73
2023/05/20 06:37:33;;;;;;;4.03;2.15;;;;;;;17.96;29.44;101689.22;5023370;28;20041;-73
2023/05/20 06:40:01;;;;;;;3.28;2.08;;;;;;;17.92;29.46;101696.09;5022425;28;20057;-73
2023/05/20 06:42:31;;;;;;;3.60;2.15;;;;;;;17.88;29.23;101695.56;5041226;28;20055;-74
2023/05/20 06:45:06;;;;;;;3.33;2.17;;;;;;;17.82;29.44;101701.72;5021686;28;20057;-73
2023/05/20 06:47:43;;;;;;;3.78;2.38;;;;;;;17.74;29.58;101691.47;5038242;28;20041;-73
2023/05/20 06:50:11;;;;;;;3.75;2.38;;;;;;;17.68;29.53;101692.09;5022644;28;20044;-73
2023/05/20 06:52:39;;;;;;;3.25;2.15;;;;;;;17.64;29.43;101692.59;5029912;28;20678;-72
2023/05/20 06:55:11;;;;;;;3.80;2.45;;;;;;;17.60;30.04;101686.47;5043170;28;20061;-73
2023/05/20 06:57:41;;;;;;;4.40;2.38;;;;;;;17.55;30.07;101685.25;5025192;28;20476;-73
2023/05/20 07:00:11;;;;;;;4.72;2.10;;;;;;;17.52;30.11;101686.41;5026509;28;20515;-72
2023/05/20 07:02:42;;;;;;;3.85;2.25;;;;;;;17.46;29.66;101688.97;5026206;28;20415;-72
2023/05/20 07:05:12;;;;;;;3.38;2.22;;;;;;;17.39;29.71;101691.50;5025171;28;20056;-72
2023/05/20 07:07:40;;;;;;;3.58;2.22;;;;;;;17.30;30.25;101687.78;5023559;28;20048;-72
2023/05/20 07:10:09;;;;;;;4.03;2.17;;;;;;;17.24;30.09;101690.28;5023697;28;20042;-71
2023/05/20 07:12:37;;;;;;;2.90;1.90;;;;;;;17.18;29.83;101694.56;5023497;28;20045;-73
2023/05/20 07:15:08;;;;;;;3.65;2.03;;;;;;;17.14;29.92;101689.53;5021360;28;20045;-72
2023/05/20 07:17:36;;;;;;;3.58;2.30;;;;;;;16.98;29.93;101693.84;5041273;28;20056;-72
2023/05/20 07:20:04;;;;;;;3.95;2.22;;;;;;;16.94;30.37;101686.84;5015356;28;20057;-72
2023/05/20 07:22:32;;;;;;;4.68;2.40;;;;;;;16.82;30.48;101679.81;5035801;28;20524;-73
2023/05/20 07:25:21;;;;;;;5.03;2.47;;;;;;;16.74;30.51;101673.31;5025573;28;20500;-72
2023/05/20 07:27:49;;;;;;;4.80;2.47;;;;;;;16.67;30.34;101681.34;5037259;28;20076;-73
2023/05/20 07:30:19;;;;;;;3.72;2.40;;;;;;;16.59;30.90;101679.34;5035563;28;20107;-73
2023/05/20 07:32:57;;;;;;;3.42;2.17;;;;;;;16.52;31.10;101678.22;5021452;28;20141;-73
2023/05/20 07:35:25;;;;;;;3.75;2.47;;;;;;;16.49;30.94;101680.44;5020499;28;20044;-74
2023/05/20 07:37:53;;;;;;;4.18;2.30;;;;;;;16.40;30.88;101664.78;5026508;28;20037;-73
2023/05/20 07:40:21;;;;;;;4.60;2.97;;;;;;;16.34;31.13;101657.09;5021152;28;20088;-72
2023/05/20 07:42:49;;;;;;;4.43;2.60;;;;;;;16.30;30.94;101659.31;5015769;28;20492;-72
2023/05/20 07:45:19;;;;;;;4.88;2.80;;;;;;;16.24;31.30;101655.28;5021004;28;20407;-71
2023/05/20 07:47:48;;;;;;;4.65;2.80;;;;;;;16.19;31.25;101653.97;5023318;28;20053;-74
2023/05/20 07:50:16;;;;;;;3.70;2.30;;;;;;;16.13;31.50;101662.81;5025474;28;20106;-73
2023/05/20 07:52:44;;;;;;;4.57;2.47;;;;;;;16.11;31.92;101668.50;5028751;28;20133;-64
2023/05/20 07:55:25;;;;;;;3.80;2.45;;;;;;;16.08;31.57;101665.19;5024985;28;20060;-74
2023/05/20 07:57:54;;;;;;;3.50;2.25;;;;;;;16.10;31.58;101665.88;5025588;28;20041;-74
2023/05/20 08:00:24;;;;;;;4.25;2.33;;;;;;;16.11;31.99;101664.88;5023678;28;20053;-72
2023/05/20 08:02:52;;;;;;;4.47;2.33;;;;;;;16.08;31.80;101663.28;5044262;28;20500;-71
2023/05/20 08:05:28;;;;;;;4.05;2.58;;;;;;;16.11;31.99;101671.25;5018676;28;20052;-72
2023/05/20 08:07:56;;;;;;;4.68;2.45;;;;;;;16.14;32.34;101675.63;5039174;28;20060;-72
2023/05/20 08:10:27;;;;;;;3.30;2.20;;;;;;;16.19;32.34;101668.66;5023774;28;20048;-64
2023/05/20 08:12:55;;;;;;;3.78;2.25;;;;;;;16.23;32.60;101674.75;5028167;28;20095;-65
2023/05/20 08:15:25;;;;;;;4.00;2.35;;;;;;;16.30;32.15;101675.00;5024258;28;20140;-65
2023/05/20 08:17:53;;;;;;;4.97;2.63;;;;;;;16.33;32.73;101669.19;5027482;28;20108;-65
2023/05/20 08:20:22;;;;;;;3.78;2.65;;;;;;;16.34;32.70;101666.25;5024673;28;20523;-64
2023/05/20 08:22:50;;;;;;;3.65;2.60;;;;;;;16.40;32.41;101667.56;5027450;28;20048;-66
2023/05/20 08:25:18;;;;;;;5.93;2.85;;;;;;;16.42;32.24;101671.88;5025099;28;20418;-67
2023/05/20 08:27:46;;;;;;;4.15;2.70;;;;;;;16.46;32.68;101672.44;5026116;28;20365;-68
2023/05/20 08:30:14;;;;;;;4.15;2.90;;;;;;;16.49;32.30;101674.94;5021677;28;20467;-68
2023/05/20 08:32:44;;;;;;;3.88;2.85;;;;;;;16.54;32.43;101669.78;5021070;28;20048;-67
2023/05/20 08:35:12;;;;;;;4.47;2.80;;;;;;;16.54;32.29;101662.38;5021411;28;20115;-67
2023/05/20 08:37:40;;;;;;;4.53;2.53;;;;;;;16.57;32.76;101661.22;5027384;28;20099;-66
2023/05/20 08:40:10;;;;;;;4.53;2.85;;;;;;;16.60;32.66;101649.81;5025055;28;20041;-66
2023/05/20 08:42:41;;;;;;;6.22;2.92;;;;;;;16.61;32.55;101665.38;5025083;28;20055;-72
2023/05/20 08:45:12;;;;;;;4.93;3.28;;;;;;;16.58;32.50;101657.38;5017393;28;20111;-72
2023/05/20 08:47:44;;;;;;;6.07;3.38;;;;;;;16.60;32.86;101667.28;5028442;28;20057;-73
2023/05/20 08:50:14;;;;;;;5.35;3.05;;;;;;;16.59;32.38;101662.78;5025066;28;20053;-72
2023/05/20 08:52:44;;;;;;;3.85;2.75;;;;;;;16.67;32.31;101662.00;5046353;28;20069;-72
2023/05/20 08:55:16;;;;;;;6.25;2.83;;;;;;;16.71;33.01;101654.28;5045033;28;20521;-71
2023/05/20 08:57:46;;;;;;;5.03;2.90;;;;;;;16.70;32.54;101655.28;5023622;28;20186;-72
2023/05/20 09:00:15;;;;;;;4.93;3.05;;;;;;;16.75;32.68;101651.03;5044329;28;20049;-73
2023/05/20 09:02:46;;;;;;;4.07;3.00;;;;;;;16.82;32.56;101649.41;5046415;28;20128;-71
2023/05/20 09:05:14;;;;;;;6.05;3.40;;;;;;;16.82;32.81;101651.31;5025900;28;20144;-73
2023/05/20 09:07:42;;;;;;;4.35;2.75;;;;;;;16.88;32.57;101658.97;5042706;28;20385;-73
2023/05/20 09:10:11;;;;;;;5.15;3.40;;;;;;;16.89;32.69;101657.94;5013283;28;20053;-72
2023/05/20 09:12:39;;;;;;;5.18;3.28;;;;;;;16.92;33.04;101657.59;5041972;28;20049;-72
2023/05/20 09:15:08;;;;;;;5.30;3.60;;;;;;;17.00;32.46;101654.97;5042902;28;20061;-72
2023/05/20 09:17:37;;;;;;;5.53;3.80;;;;;;;17.04;32.66;101655.53;5043926;28;20102;-72
2023/05/20 09:20:10;;;;;;;4.97;3.50;;;;;;;17.11;33.07;101663.03;5044620;28;20497;-72
2023/05/20 09:22:39;;;;;;;5.32;3.20;;;;;;;17.15;32.60;101660.84;5046116;28;20056;-72
2023/05/20 09:25:09;;;;;;;5.43;3.10;;;;;;;17.22;32.63;101665.59;5040512;28;20464;-67
2023/05/20 09:27:37;;;;;;;4.68;3.33;;;;;;;17.25;32.86;101665.25;5045589;28;20172;-66
2023/05/20 09:30:07;;;;;;;7.45;3.65;;;;;;;17.29;32.59;101666.69;5039011;28;20049;-66
2023/05/20 09:32:35;;;;;;;5.10;3.55;;;;;;;17.32;32.04;101665.47;5039920;28;20048;-66
2023/05/20 09:35:05;;;;;;;5.18;3.15;;;;;;;17.37;31.95;101663.13;5025052;28;20065;-65
2023/05/20 09:37:35;;;;;;;4.60;3.53;;;;;;;17.38;32.30;101662.09;5045381;28;20048;-65
2023/05/20 09:40:08;;;;;;;5.45;3.20;;;;;;;17.42;31.95;101665.38;5038599;28;20123;-65
2023/05/20 09:42:42;;;;;;;5.20;3.20;;;;;;;17.42;32.18;101668.16;5042664;28;20049;-65
2023/05/20 09:45:15;;;;;;;4.85;3.42;;;;;;;17.43;32.46;101665.22;5034646;28;20056;-65
2023/05/20 09:47:46;;;;;;;6.55;3.40;;;;;;;17.44;32.36;101669.75;5044686;28;20047;-65
2023/05/20 09:50:15;;;;;;;5.35;3.25;;;;;;;17.44;31.81;101653.13;5044378;28;20059;-64
2023/05/20 09:52:44;;;;;;;5.60;3.47;;;;;;;17.49;31.97;101658.19;5027627;28;20045;-65
2023/05/20 09:55:12;;;;;;;5.88;3.40;;;;;;;17.48;32.28;101657.34;5038457;28;20666;-65
2023/05/20 09:57:40;;;;;;;4.97;3.58;;;;;;;17.48;31.99;101659.25;5044282;28;20120;-66
2023/05/20 10:00:12;;;;;;;5.43;3.50;;;;;;;17.50;32.52;101659.91;5043425;28;20128;-66
2023/05/20 10:02:43;;;;;;;5.13;3.60;;;;;;;17.51;32.01;101651.47;5031804;28;20041;-65
2023/05/20 10:05:17;;;;;;;4.85;3.47;;;;;;;17.54;32.11;101659.47;5047042;28;20041;-65
2023/05/20 10:08:16;;;;;;;5.30;3.30;;;;;;;17.58;32.65;101648.91;5052952;28;20566;-65
2023/05/20 10:10:49;;;;;;;4.95;3.30;;;;;;;17.60;32.12;101647.72;5033879;28;20135;-66
2023/05/20 10:13:46;;;;;;;5.63;3.95;;;;;;;17.57;32.79;101650.81;5027608;28;20603;-66
2023/05/20 10:16:28;;;;;;;5.65;4.07;;;;;;;17.66;32.63;101647.06;5039107;28;20500;-65
2023/05/20 10:19:07;;;;;;;5.88;3.90;;;;;;;17.69;32.49;101652.31;5026145;28;20055;-65
2023/05/20 10:21:36;;;;;;;5.07;3.60;;;;;;;17.70;32.30;101653.19;5046092;28;20048;-65
2023/05/20 10:24:08;;;;;;;5.57;3.40;;;;;;;17.79;32.29;101643.94;5048592;28;20037;-65
2023/05/20 10:26:37;;;;;;;5.22;3.70;;;;;;;17.78;32.36;101653.25;5045988;28;20048;-65
2023/05/20 10:29:15;;;;;;;5.68;3.70;;;;;;;17.87;32.25;101651.41;5049310;28;20037;-71
2023/05/20 10:31:50;;;;;;;6.50;3.95;;;;;;;17.91;31.93;101647.28;5044681;28;20045;-71
2023/05/20 10:34:19;;;;;;;6.45;3.60;;;;;;;17.91;31.82;101639.84;5038296;28;20037;-72
2023/05/20 10:36:58;;;;;;;6.32;3.83;;;;;;;17.98;31.78;101645.59;5042653;28;20160;-73
2023/05/20 10:39:29;;;;;;;4.93;3.72;;;;;;;17.97;32.35;101647.53;5043018;28;20041;-71
2023/05/20 10:42:07;;;;;;;5.63;4.35;;;;;;;17.97;31.57;101661.38;5045272;28;20049;-71
2023/05/20 10:44:42;;;;;;;5.65;3.95;;;;;;;18.01;32.13;101654.44;5043718;28;20551;-72
2023/05/20 10:47:10;;;;;;;4.75;3.67;;;;;;;18.02;31.75;101660.88;5043927;28;20462;-72
2023/05/20 10:49:44;;;;;;;5.28;3.65;;;;;;;18.03;31.69;101640.44;5042860;28;20579;-72
2023/05/20 10:52:13;;;;;;;4.93;3.88;;;;;;;17.99;31.56;101655.63;5025452;28;20048;-72
2023/05/20 10:54:46;;;;;;;5.70;3.92;;;;;;;18.01;32.03;101656.34;5045169;28;20080;-73
2023/05/20 10:57:18;;;;;;;6.05;3.63;;;;;;;17.96;31.49;101650.44;5027834;28;20056;-72
2023/05/20 10:59:47;;;;;;;5.85;4.10;;;;;;;17.93;31.77;101648.00;5044357;28;20045;-74
2023/05/20 11:02:16;;;;;;;5.47;3.90;;;;;;;17.92;31.88;101649.88;5046584;28;20120;-74
2023/05/20 11:04:44;;;;;;;6.30;4.45;;;;;;;17.85;32.01;101650.72;5030921;28;20106;-75
2023/05/20 11:07:12;;;;;;;5.45;3.95;;;;;;;17.81;31.68;101650.19;5025408;28;20053;-75
2023/05/20 11:09:50;;;;;;;6.30;3.97;;;;;;;17.82;31.73;101646.34;5028323;28;20152;-75
2023/05/20 11:12:18;;;;;;;5.43;4.05;;;;;;;17.75;31.79;101648.03;5042921;28;20052;-75
2023/05/20 11:14:48;;;;;;;5.82;4.30;;;;;;;17.72;31.82;101645.59;5044518;28;20723;-72
2023/05/20 11:17:17;;;;;;;5.00;3.72;;;;;;;17.72;32.08;101645.59;5045469;28;20500;-72
2023/05/20 11:19:44;;;;;;;5.60;4.15;;;;;;;17.69;32.23;101652.31;5047092;28;20037;-72
2023/05/20 11:22:12;;;;;;;5.00;3.78;;;;;;;17.69;32.23;101644.00;5044668;28;20047;-72
2023/05/20 11:24:40;;;;;;;5.85;3.97;;;;;;;17.68;32.55;101646.91;5043791;28;20498;-72
2023/05/20 11:27:10;;;;;;;6.10;4.00;;;;;;;17.68;32.32;101645.03;5047453;28;20099;-72
2023/05/20 11:29:39;;;;;;;5.80;4.25;;;;;;;17.65;32.65;101633.41;5046544;28;20128;-72
2023/05/20 11:32:08;;;;;;;5.45;3.80;;;;;;;17.63;32.12;101632.72;5047057;28;20049;-72
2023/05/20 11:34:37;;;;;;;6.90;4.10;;;;;;;17.64;32.13;101628.91;5047228;28;20045;-72
2023/05/20 11:37:07;;;;;;;5.13;4.00;;;;;;;17.64;32.68;101628.91;5046479;28;20044;-72
2023/05/20 11:39:38;;;;;;;6.90;5.10;;;;;;;17.59;32.89;101629.38;5046657;28;20408;-72